Date,TemperatureHighF,TemperatureAvgF,TemperatureLowF,DewpointHighF,DewpointAvgF,DewpointLowF,HumidityHigh,HumidityAvg,HumidityLow,PressureMaxIn,PressureMinIn,WindSpeedMaxMPH,WindSpeedAvgMPH,GustSpeedMaxMPH,PrecipitationSumIn
2013-7-1,94,79,68,69,64,58,89,62,39,29.23,29.13,13,4,13,0.00
2013-7-2,81,72,63,65,60,55,79,65,51,29.31,29.23,10,4,13,0.00
2013-7-3,82,68,56,61,56,52,90,68,36,29.37,29.25,13,4,13,0.00
2013-7-4,73,63,53,59,54,47,96,75,55,29.32,29.24,12,3,12,0.00
2013-7-5,80,66,53,59,55,51,93,70,44,29.25,29.15,13,3,13,0.00
2013-7-6,86,69,55,60,56,53,94,67,36,29.21,29.06,13,4,13,0.00
2013-7-7,80,70,60,63,58,55,91,69,43,29.16,29.09,14,3,14,0.00
2013-7-8,80,68,59,64,60,56,99,75,49,29.31,29.16,13,3,13,0.00
2013-7-9,86,72,59,64,61,58,97,70,45,29.33,29.20,13,4,13,0.00
2013-7-10,77,66,55,61,56,46,94,70,47,29.25,29.13,13,3,13,0.00
2013-7-11,70,60,52,55,50,46,88,69,46,29.27,29.16,14,4,14,0.00
2013-7-12,76,62,51,56,50,46,89,66,38,29.31,29.22,14,4,14,0.00
2013-7-13,82,65,52,58,52,48,88,64,36,29.42,29.30,11,3,11,0.05
2013-7-14,82,67,55,59,54,50,86,65,41,29.35,29.23,13,3,13,0.00
2013-7-15,85,71,57,56,52,48,83,54,29,29.30,29.15,13,2,14,0.00
2013-7-16,94,76,64,62,53,46,62,45,22,29.16,29.05,11,2,11,0.00
2013-7-17,81,72,63,64,58,53,79,64,49,29.41,29.08,15,4,15,0.00
2013-7-18,83,70,62,63,59,56,83,68,49,29.44,29.33,15,4,15,0.00
2013-7-19,83,70,58,66,61,56,97,74,54,29.38,29.25,12,4,12,0.00
2013-7-20,78,67,57,64,60,56,99,78,58,29.28,29.17,12,4,12,0.00
2013-7-21,77,66,55,63,58,54,95,76,57,29.18,29.12,13,4,13,0.00
2013-7-22,80,68,56,65,60,56,99,77,56,29.25,29.15,10,3,10,0.00
2013-7-23,91,73,60,65,60,55,98,67,32,29.29,29.18,13,3,13,0.00
2013-7-24,87,73,59,65,58,55,90,62,40,29.28,29.20,10,3,10,0.00
2013-7-25,87,72,58,63,59,56,99,67,37,29.31,29.24,15,3,15,0.00
2013-7-26,83,70,58,61,58,54,93,67,41,29.36,29.28,15,3,15,0.00
2013-7-27,78,66,55,61,56,52,99,72,48,29.35,29.21,13,3,13,0.00
2013-7-28,79,66,56,61,56,52,90,70,50,29.22,29.14,13,4,13,0.00
2013-7-29,78,66,57,62,58,55,97,75,55,29.22,29.14,13,4,13,0.00
2013-7-30,79,68,58,63,58,55,98,72,51,29.33,29.21,13,4,13,0.00
2013-7-31,80,68,58,64,60,56,97,75,57,29.33,29.20,13,3,13,0.00